createdAt,value
2023-01-28T00:00:22.446Z,1.64
2023-01-28T00:05:24.046Z,1.68
2023-01-28T00:10:28.427Z,1.75
2023-01-28T00:15:36.008Z,1.93
2023-01-28T00:20:37.580Z,2.08
2023-01-28T00:25:39.201Z,2.16
2023-01-28T00:30:40.781Z,2.27
2023-01-28T00:35:44.601Z,2.33
2023-01-28T00:40:49.169Z,2.36
2023-01-28T00:45:50.755Z,2.44
2023-01-28T00:50:53.555Z,2.51
2023-01-28T00:55:55.259Z,2.59
2023-01-28T01:00:56.794Z,2.69
2023-01-28T01:05:58.706Z,2.79
2023-01-28T01:11:07.110Z,2.82
2023-01-28T01:16:13.497Z,2.66
2023-01-28T01:21:19.643Z,2.65
2023-01-28T01:26:24.897Z,2.64
2023-01-28T01:31:28.983Z,2.68
2023-01-28T01:36:33.947Z,2.71
2023-01-28T01:41:35.541Z,2.70
2023-01-28T01:46:50.747Z,2.71
2023-01-28T01:52:07.492Z,2.73
2023-01-28T01:57:16.082Z,2.72
2023-01-28T02:02:20.363Z,2.52
2023-01-28T02:07:21.955Z,2.42
2023-01-28T02:12:32.700Z,2.37
2023-01-28T02:17:39.304Z,2.31
2023-01-28T02:23:18.065Z,2.22
2023-01-28T02:28:40.995Z,2.14
2023-01-28T02:34:17.730Z,1.97
2023-01-28T02:39:24.726Z,1.87
2023-01-28T02:44:29.455Z,2.01
2023-01-28T02:49:38.437Z,2.15
2023-01-28T02:54:45.538Z,2.25
2023-01-28T03:00:02.961Z,2.30
2023-01-28T03:05:15.845Z,2.32
2023-01-28T03:10:21.711Z,2.38
2023-01-28T03:15:50.590Z,2.46
2023-01-28T03:21:16.936Z,2.58
2023-01-28T03:26:42.910Z,2.66
2023-01-28T03:32:03.374Z,2.74
2023-01-28T03:37:11.963Z,2.80
2023-01-28T03:42:37.940Z,2.90
2023-01-28T03:48:00.776Z,2.98
2023-01-28T03:53:16.423Z,3.06
2023-01-28T03:58:46.305Z,3.12
2023-01-28T04:03:51.785Z,3.18
2023-01-28T04:08:59.584Z,3.24
2023-01-28T04:14:15.232Z,3.26
2023-01-28T04:19:30.675Z,3.29
2023-01-28T04:24:33.480Z,3.28
2023-01-28T04:29:35.019Z,3.29
2023-01-28T04:35:00.513Z,3.16
2023-01-28T04:40:13.780Z,3.01
2023-01-28T04:45:17.622Z,2.88
2023-01-28T04:50:44.429Z,2.72
2023-01-28T04:56:08.046Z,2.64
2023-01-28T05:01:10.787Z,2.54
2023-01-28T05:06:12.472Z,2.46
2023-01-28T05:11:17.042Z,2.44
2023-01-28T05:16:21.808Z,2.37
2023-01-28T05:21:23.493Z,2.32
2023-01-28T05:26:33.856Z,2.32
2023-01-28T05:31:36.139Z,2.31
2023-01-28T05:36:41.216Z,2.33
2023-01-28T05:41:58.640Z,2.35
2023-01-28T05:47:01.829Z,2.40
2023-01-28T05:52:24.241Z,2.44
2023-01-28T05:57:28.361Z,2.48
2023-01-28T06:02:32.713Z,2.54
2023-01-28T06:07:37.664Z,2.57
2023-01-28T06:12:43.391Z,2.58
2023-01-28T06:18:12.190Z,2.63
2023-01-28T06:23:14.111Z,2.63
2023-01-28T06:28:24.611Z,2.63
2023-01-28T06:33:30.825Z,2.64
2023-01-28T06:38:37.256Z,2.68
2023-01-28T06:43:38.770Z,2.72
2023-01-28T06:48:42.653Z,2.75
2023-01-28T06:53:46.473Z,2.75
2023-01-28T06:58:49.014Z,2.73
2023-01-28T07:03:52.902Z,2.73
2023-01-28T07:08:56.820Z,2.67
2023-01-28T07:14:05.122Z,2.64
2023-01-28T07:19:06.594Z,2.60
2023-01-28T07:24:08.431Z,2.57
2023-01-28T07:29:11.108Z,2.54
2023-01-28T07:34:12.907Z,2.54
2023-01-28T07:39:17.439Z,2.51
2023-01-28T07:44:18.946Z,2.50
2023-01-28T07:49:22.805Z,2.49
2023-01-28T07:54:24.348Z,2.50
2023-01-28T07:59:28.131Z,2.55
2023-01-28T08:04:32.956Z,2.56
2023-01-28T08:09:34.647Z,2.51
2023-01-28T08:14:38.686Z,2.53
2023-01-28T08:19:40.187Z,2.59
2023-01-28T08:24:41.773Z,2.57
2023-01-28T08:29:43.972Z,2.60
2023-01-28T08:34:46.527Z,2.64
2023-01-28T08:39:50.860Z,2.71
2023-01-28T08:44:52.356Z,2.76
2023-01-28T08:49:54.040Z,2.81
2023-01-28T08:54:58.920Z,2.86
2023-01-28T09:00:07.787Z,2.89
2023-01-28T09:05:15.293Z,2.89
2023-01-28T09:10:20.560Z,2.93
2023-01-28T09:15:25.285Z,3.03
2023-01-28T09:20:27.666Z,3.06
2023-01-28T09:25:32.409Z,3.13
2023-01-28T09:30:37.258Z,3.14
2023-01-28T09:35:39.079Z,3.15
2023-01-28T09:40:45.521Z,3.19
2023-01-28T09:45:55.627Z,3.25
2023-01-28T09:50:57.401Z,3.30
2023-01-28T09:56:07.270Z,3.32
2023-01-28T10:01:40.899Z,3.33
2023-01-28T10:06:56.525Z,3.33
2023-01-28T10:12:23.996Z,3.36
2023-01-28T10:17:42.669Z,3.38
2023-01-28T10:23:15.599Z,3.40
2023-01-28T10:28:29.888Z,3.41
2023-01-28T10:33:37.789Z,3.41
2023-01-28T10:38:39.744Z,3.44
2023-01-28T10:43:42.683Z,3.44
2023-01-28T10:48:57.483Z,3.44
2023-01-28T10:54:05.994Z,3.39
2023-01-28T10:59:27.385Z,3.40
2023-01-28T11:04:32.202Z,3.45
2023-01-28T11:09:46.309Z,3.46
2023-01-28T11:15:06.853Z,3.41
2023-01-28T11:20:25.635Z,3.39
2023-01-28T11:25:34.782Z,3.38
2023-01-28T11:30:40.356Z,3.39
2023-01-28T11:35:42.558Z,3.42
2023-01-28T11:41:05.405Z,3.46
2023-01-28T11:46:13.060Z,3.39
2023-01-28T11:51:18.869Z,3.43
2023-01-28T11:56:34.271Z,3.48
2023-01-28T12:01:51.244Z,3.51
2023-01-28T12:07:18.508Z,3.46
2023-01-28T12:13:11.200Z,3.43
2023-01-28T12:18:51.185Z,3.43
2023-01-28T12:24:22.792Z,3.48
2023-01-28T12:29:38.950Z,3.46
2023-01-28T12:35:00.422Z,3.49
2023-01-28T12:40:26.494Z,3.53
2023-01-28T12:45:41.057Z,3.56
2023-01-28T12:50:53.126Z,3.53
2023-01-28T12:56:19.194Z,3.48
2023-01-28T13:01:47.530Z,3.38
2023-01-28T13:07:05.597Z,3.46
2023-01-28T13:12:13.619Z,3.46
2023-01-28T13:17:30.230Z,3.49
2023-01-28T13:22:35.210Z,3.42
2023-01-28T13:27:36.951Z,3.42
2023-01-28T13:32:40.786Z,3.43
2023-01-28T13:37:47.017Z,3.39
2023-01-28T13:43:03.301Z,3.32
2023-01-28T13:48:23.940Z,3.27
2023-01-28T13:53:39.721Z,3.25
2023-01-28T13:59:28.307Z,3.18
2023-01-28T14:05:18.431Z,3.06
2023-01-28T14:10:33.859Z,2.98
2023-01-28T14:15:56.480Z,3.03
2023-01-28T14:21:09.299Z,3.13
2023-01-28T14:26:47.655Z,3.19
2023-01-28T14:31:52.887Z,3.24
2023-01-28T14:37:06.711Z,3.20
2023-01-28T14:42:25.610Z,3.19
2023-01-28T14:47:49.119Z,3.18
2023-01-28T14:52:53.526Z,3.15
2023-01-28T14:58:05.677Z,3.24
2023-01-28T15:03:24.844Z,3.28
2023-01-28T15:08:26.906Z,3.33
2023-01-28T15:13:38.699Z,3.33
2023-01-28T15:18:44.799Z,3.36
2023-01-28T15:23:58.910Z,3.39
2023-01-28T15:29:05.973Z,3.35
2023-01-28T15:34:16.655Z,3.36
2023-01-28T15:39:24.289Z,3.31
2023-01-28T15:44:34.293Z,3.30
2023-01-28T15:49:43.473Z,3.30
2023-01-28T15:54:52.609Z,3.32
2023-01-28T16:00:06.317Z,3.37
2023-01-28T16:05:38.701Z,3.39
2023-01-28T16:10:40.272Z,3.33
2023-01-28T16:15:47.665Z,3.35
2023-01-28T16:20:51.734Z,3.32
2023-01-28T16:26:06.493Z,3.29
2023-01-28T16:31:11.230Z,3.23
2023-01-28T16:36:14.632Z,3.19
2023-01-28T16:41:42.170Z,3.14
2023-01-28T16:46:53.024Z,3.15
2023-01-28T16:51:55.320Z,3.24
2023-01-28T16:56:57.998Z,3.35
2023-01-28T17:01:59.490Z,3.38
2023-01-28T17:07:02.339Z,3.31
2023-01-28T17:12:04.197Z,3.30
2023-01-28T17:17:10.804Z,3.23
2023-01-28T17:22:14.777Z,3.19
2023-01-28T17:27:16.269Z,3.17
2023-01-28T17:32:17.802Z,3.21
2023-01-28T17:37:19.295Z,3.30
2023-01-28T17:42:20.798Z,3.32
2023-01-28T17:47:26.909Z,3.26
2023-01-28T17:52:29.280Z,3.24
2023-01-28T17:57:30.792Z,3.26
2023-01-28T18:02:33.472Z,3.24
2023-01-28T18:07:39.729Z,3.22
2023-01-28T18:12:41.343Z,3.21
2023-01-28T18:17:42.883Z,3.16
2023-01-28T18:22:46.946Z,3.16
2023-01-28T18:27:49.333Z,3.18
2023-01-28T18:32:50.891Z,3.21
2023-01-28T18:37:56.694Z,3.25
2023-01-28T18:43:05.545Z,3.30
2023-01-28T18:48:07.773Z,3.37
2023-01-28T18:53:09.288Z,3.38
2023-01-28T18:58:10.872Z,3.31
2023-01-28T19:03:12.587Z,3.19
2023-01-28T19:08:18.780Z,3.12
2023-01-28T19:13:20.291Z,3.09
2023-01-28T19:18:27.139Z,3.11
2023-01-28T19:23:40.937Z,3.16
2023-01-28T19:28:52.343Z,3.26
2023-01-28T19:33:56.033Z,3.33
2023-01-28T19:39:08.040Z,3.37
2023-01-28T19:44:09.785Z,3.37
2023-01-28T19:49:14.142Z,3.27
2023-01-28T19:54:18.458Z,3.18
2023-01-28T19:59:20.009Z,3.09
2023-01-28T20:04:26.055Z,3.05
2023-01-28T20:09:30.176Z,3.01
2023-01-28T20:14:31.833Z,2.98
2023-01-28T20:19:34.831Z,2.97
2023-01-28T20:24:36.354Z,2.97
2023-01-28T20:29:37.916Z,2.98
2023-01-28T20:34:43.003Z,2.91
2023-01-28T20:39:44.834Z,2.77
2023-01-28T20:44:48.750Z,2.68
2023-01-28T20:49:50.279Z,2.65
2023-01-28T20:54:54.341Z,2.70
2023-01-28T20:59:55.885Z,2.69
2023-01-28T21:04:57.381Z,2.69
2023-01-28T21:10:01.237Z,2.73
2023-01-28T21:15:07.929Z,2.66
2023-01-28T21:20:11.606Z,2.60
2023-01-28T21:25:13.228Z,2.54
2023-01-28T21:30:15.700Z,2.46
2023-01-28T21:35:17.515Z,2.37
2023-01-28T21:40:24.443Z,2.39
2023-01-28T21:45:28.927Z,2.34
2023-01-28T21:50:52.926Z,2.25
2023-01-28T21:55:54.440Z,2.22
2023-01-28T22:00:55.940Z,2.23
2023-01-28T22:06:00.462Z,2.32
2023-01-28T22:11:04.901Z,2.39
2023-01-28T22:16:09.232Z,2.34
2023-01-28T22:21:12.924Z,2.28
2023-01-28T22:26:19.387Z,2.27
2023-01-28T22:31:24.079Z,2.26
2023-01-28T22:36:27.955Z,2.27
2023-01-28T22:41:30.194Z,2.32
2023-01-28T22:46:37.894Z,2.33
2023-01-28T22:51:39.473Z,2.30
2023-01-28T22:56:40.984Z,2.34
2023-01-28T23:01:50.019Z,2.36
2023-01-28T23:06:51.598Z,2.37
2023-01-28T23:11:53.128Z,2.39
2023-01-28T23:17:13.456Z,2.45
2023-01-28T23:22:52.565Z,2.42
2023-01-28T23:27:56.188Z,2.39
2023-01-28T23:33:04.400Z,2.35
2023-01-28T23:38:09.244Z,2.35
2023-01-28T23:43:10.853Z,2.33
2023-01-28T23:48:13.523Z,2.36
2023-01-28T23:53:17.415Z,2.39
2023-01-28T23:58:33.544Z,2.36
